Airfield :
LOGIN :

Register | Disclaimer

   EN    FR    IT 

 










Legend :    VFR   Marginal VFR   IFR   Intensive IFR   Very Intensive IFR
Visi :
Ceiling :
>= 8 km
>= 3000ft
5 to 8 km
1000 to 3000 ft
1500m to 5 km
500 to 1000 ft
800 to 1500m
200 to 500 ft
< 800m
< 200 ft
Symbols :   Thunderstorms  Fog  Heavy snow  Heavy precipitations  Wind > 20 kt
SIGMETs :     Misc.  Thunderstorms  Icing  Turbulence  Mountain Waves  Volcanic Ashes







- Airport Elevation : 290 ft
- IATA code : OSI


LDOS - Osijek

CURRENT METAR :
  • 230630Z 02016KT CAVOK M04/M12 Q1038

EXPIRED METARs :
  • 230600Z 01016KT CAVOK M04/M12 Q1038
  • 230530Z 02014KT CAVOK M04/M12 Q1038
  • 230500Z 02014KT CAVOK M04/M12 Q1038
  • 230430Z 01015KT CAVOK M04/M12 Q1037
  • 230400Z 02015KT CAVOK M04/M12 Q1037

TAF TAF LDOS
Valid from the 23 at 06:00 until the 24 at 06:00 UTC


230525Z 2306/2406 02016KT CAVOK TX02/2313Z TNM06/2404Z
BECMG 2315/2317 02008KT
No reported NOTAMs for that airfield.
2 SIGMETs reported for the Zagreb FIR (LDZO) :
 
Severe turbulence
LDZO SIGMET 2 VALID 230400/230800 LDZA
LDZO ZAGREB FIR SEV TURB FCST WI N4224 E01831 - N4128 E01819 - N4220 E01609 - N4430 E01313 - N4534 E01310 - N4527 E01510 - N4224 E01831 SFC/FL100 STNR NC=
Severe mountain waves
LDZO SIGMET 1 VALID 230400/230800 LDZA
LDZO ZAGREB FIR SEV MTW FCST SW OF LINE N4532 E01458 - N4458 E01545 FL100/380 STNR NC=



MET'MAP, your aeronautical weather chart ! - Copyright ORBIFLY December 2007 - Disclaimer

ORBIFLY MET'MAP TEAM :

Programming & Development : Alexandra Zaïnal
Concept & Development : Baudouin d'Aumeries
Co-Development & Prog : Marc-Olivier Méhu
Technical & hardware support : Manuel Goepfert

Contact : metmap@orbifly.com




SOURCES & CREDITS :

   NOAA